Ostend Airport 2018/06/24 23:20 EBOS 242320Z 02007KT CAVOK 14/10 Q1025 NOSIG

Lille Airport 2018/06/24 23:30 LFQQ 242330Z AUTO 34005KT CAVOK 14/07 Q1025 NOSIG

Brussels Airport 2018/06/24 23:20 EBBR 242320Z 36003KT 9999 BKN023 14/10 Q1024 TEMPO BKN014